Time;durP1;ratioP1;P1;durP2;ratioP2;P2;SDS_P1;SDS_P2;PMS_P1;PMS_P2;Temp;Humidity;BMP_temperature;BMP_pressure;BME280_temperature;BME280_humidity;BME280_pressure;Samples;Min_cycle;Max_cycle;Signal;HPM_P1;HPM_P2
2023/05/07 04:05:53;;;;;;;1.58;1.48;;;11.90;99.90;;;;;;5208667;23;20618;-68
2023/05/07 04:08:18;;;;;;;2.10;2.00;;;11.90;99.90;;;;;;4972524;28;20178;-68
2023/05/07 04:10:44;;;;;;;1.83;1.73;;;11.90;99.90;;;;;;4973810;28;20646;-70
2023/05/07 04:13:09;;;;;;;2.60;2.50;;;11.90;99.90;;;;;;4973939;28;20167;-68
2023/05/07 04:15:36;;;;;;;1.47;1.47;;;11.90;99.90;;;;;;4977500;28;20214;-69
2023/05/07 04:18:01;;;;;;;2.40;2.27;;;11.90;99.90;;;;;;4960583;28;20190;-69
2023/05/07 04:20:27;;;;;;;1.70;1.60;;;11.90;99.90;;;;;;4977501;28;20414;-69
2023/05/07 04:22:52;;;;;;;2.40;2.00;;;12.00;99.90;;;;;;4960177;28;20540;-69
2023/05/07 04:25:18;;;;;;;1.77;1.77;;;12.00;99.90;;;;;;4976979;28;20574;-68
2023/05/07 04:27:44;;;;;;;1.40;1.40;;;12.00;99.90;;;;;;4977635;28;20593;-68
2023/05/07 04:30:10;;;;;;;1.70;1.60;;;12.10;99.90;;;;;;4977550;28;20633;-68
2023/05/07 04:32:37;;;;;;;2.23;2.10;;;12.10;99.90;;;;;;4977250;28;20642;-68
2023/05/07 04:35:02;;;;;;;1.30;1.20;;;12.20;99.90;;;;;;4975813;28;20497;-69
2023/05/07 04:37:28;;;;;;;2.37;2.17;;;12.20;99.90;;;;;;4960069;28;20427;-68
2023/05/07 04:39:53;;;;;;;2.30;2.10;;;12.40;99.90;;;;;;4977045;28;20166;-70
2023/05/07 04:42:19;;;;;;;2.27;2.17;;;12.40;99.90;;;;;;4977012;28;20201;-69
2023/05/07 04:44:45;;;;;;;2.53;2.10;;;12.50;99.90;;;;;;4976632;28;20194;-69
2023/05/07 04:47:11;;;;;;;2.30;1.50;;;12.70;99.90;;;;;;4976937;28;20262;-68
2023/05/07 04:49:37;;;;;;;2.27;2.17;;;12.80;99.90;;;;;;4976782;28;20194;-70
2023/05/07 04:52:03;;;;;;;1.67;1.57;;;13.00;99.90;;;;;;4976977;28;20429;-69
2023/05/07 04:54:29;;;;;;;1.90;1.80;;;13.10;99.90;;;;;;4976416;28;20453;-69
2023/05/07 04:56:55;;;;;;;2.27;2.17;;;13.30;99.90;;;;;;4976844;28;20477;-68
2023/05/07 04:59:21;;;;;;;1.97;1.87;;;13.50;99.90;;;;;;4976798;28;20174;-69
2023/05/07 05:01:46;;;;;;;1.30;1.20;;;13.70;99.90;;;;;;4976758;28;20209;-69
2023/05/07 05:04:13;;;;;;;1.80;1.70;;;13.70;99.90;;;;;;4976230;28;20199;-67
2023/05/07 05:06:38;;;;;;;1.13;1.13;;;13.80;99.90;;;;;;4976338;28;20478;-69
2023/05/07 05:09:04;;;;;;;1.63;1.60;;;13.80;99.90;;;;;;4976608;28;20928;-68
2023/05/07 05:11:31;;;;;;;3.43;2.00;;;13.80;99.90;;;;;;4959113;28;20944;-69
2023/05/07 05:13:56;;;;;;;2.13;1.93;;;13.70;99.90;;;;;;4975807;28;20762;-68
2023/05/07 05:16:22;;;;;;;1.20;1.20;;;13.70;99.90;;;;;;4958073;28;20426;-69
2023/05/07 05:18:48;;;;;;;1.47;1.37;;;13.70;99.90;;;;;;4975493;28;20422;-69
2023/05/07 05:21:14;;;;;;;1.47;1.47;;;13.60;99.90;;;;;;4976074;28;20218;-67
2023/05/07 05:23:39;;;;;;;4.20;2.00;;;13.60;99.90;;;;;;4972910;28;20173;-69
2023/05/07 05:26:05;;;;;;;2.27;2.17;;;13.60;99.90;;;;;;4975538;28;20245;-69
2023/05/07 05:28:30;;;;;;;2.13;2.03;;;13.70;99.90;;;;;;4976277;28;20180;-68
2023/05/07 05:30:56;;;;;;;1.60;1.50;;;13.70;99.90;;;;;;4975961;28;20184;-67
2023/05/07 05:33:22;;;;;;;1.80;1.70;;;13.70;99.90;;;;;;4975788;28;20183;-70
2023/05/07 05:35:47;;;;;;;1.83;1.70;;;13.70;99.90;;;;;;4958594;28;20208;-74
2023/05/07 05:38:13;;;;;;;1.93;1.83;;;13.80;99.90;;;;;;4975701;28;20172;-68
2023/05/07 05:40:39;;;;;;;1.73;1.63;;;13.80;99.90;;;;;;4971605;28;20291;-66
2023/05/07 05:43:05;;;;;;;1.60;1.50;;;14.00;99.90;;;;;;4957861;28;20424;-67
2023/05/07 05:45:31;;;;;;;1.73;1.60;;;14.20;99.90;;;;;;4975691;28;20207;-72
2023/05/07 05:47:57;;;;;;;1.73;1.63;;;14.40;99.90;;;;;;4975797;28;20829;-72
2023/05/07 05:50:23;;;;;;;1.37;1.27;;;14.60;99.90;;;;;;4958281;28;20708;-72
2023/05/07 05:52:48;;;;;;;2.10;1.50;;;14.80;99.90;;;;;;4975725;28;20411;-68
2023/05/07 05:55:14;;;;;;;1.80;1.70;;;14.90;99.90;;;;;;4974924;28;20208;-68
2023/05/07 05:57:40;;;;;;;1.93;1.83;;;15.10;99.90;;;;;;4975576;28;20640;-67
2023/05/07 06:00:07;;;;;;;1.90;1.80;;;15.40;99.90;;;;;;4975626;28;20173;-69
2023/05/07 06:02:33;;;;;;;1.50;1.40;;;15.70;99.90;;;;;;4975561;28;20433;-68
2023/05/07 06:04:58;;;;;;;2.00;1.90;;;15.90;99.90;;;;;;4963446;28;20461;-68
2023/05/07 06:07:25;;;;;;;1.53;1.03;;;16.10;99.90;;;;;;4951848;28;20191;-70
2023/05/07 06:09:50;;;;;;;1.50;1.40;;;16.40;99.90;;;;;;4975086;28;20217;-68
2023/05/07 06:12:16;;;;;;;1.90;1.80;;;16.70;99.90;;;;;;4975065;28;20463;-69
2023/05/07 06:14:43;;;;;;;1.53;1.50;;;17.00;99.90;;;;;;4971339;28;20228;-66
2023/05/07 06:17:09;;;;;;;1.27;1.27;;;17.20;99.90;;;;;;4955234;28;20177;-69
2023/05/07 06:19:35;;;;;;;1.90;1.80;;;17.40;99.90;;;;;;4958889;28;20435;-67
2023/05/07 06:22:01;;;;;;;1.40;1.30;;;17.50;99.90;;;;;;4943012;28;20184;-71
2023/05/07 06:24:27;;;;;;;1.73;1.60;;;17.80;99.90;;;;;;4974124;28;20984;-68
2023/05/07 06:26:52;;;;;;;1.60;1.50;;;17.90;99.90;;;;;;4974867;28;20412;-67
2023/05/07 06:29:18;;;;;;;1.50;1.40;;;17.90;99.90;;;;;;4974806;28;20693;-67
2023/05/07 06:31:44;;;;;;;1.40;1.30;;;17.90;99.90;;;;;;4974981;28;20182;-64
2023/05/07 06:34:10;;;;;;;3.00;1.67;;;17.90;99.90;;;;;;4974444;28;20188;-69
2023/05/07 06:36:36;;;;;;;2.60;2.10;;;17.90;99.90;;;;;;4974211;28;20168;-68
2023/05/07 06:39:01;;;;;;;1.60;1.50;;;18.00;99.90;;;;;;4957419;28;20466;-68
2023/05/07 06:41:27;;;;;;;1.50;1.13;;;18.00;99.90;;;;;;4975184;28;20176;-68
2023/05/07 06:43:52;;;;;;;1.60;1.50;;;18.00;99.90;;;;;;4974462;28;20180;-67
2023/05/07 06:46:18;;;;;;;1.33;1.23;;;18.10;99.90;;;;;;4974924;28;20188;-69
2023/05/07 06:48:44;;;;;;;1.33;1.23;;;18.10;99.90;;;;;;4975460;28;20627;-68
2023/05/07 06:51:09;;;;;;;1.23;1.13;;;18.20;99.90;;;;;;4974833;28;20175;-67
2023/05/07 06:53:35;;;;;;;1.20;1.20;;;18.30;99.90;;;;;;4975439;28;20179;-67
2023/05/07 06:56:01;;;;;;;1.90;1.80;;;18.40;99.90;;;;;;4981542;28;20240;-66
2023/05/07 06:58:26;;;;;;;1.80;1.70;;;18.50;99.90;;;;;;4962117;28;20426;-69
2023/05/07 07:00:53;;;;;;;1.20;1.20;;;18.60;99.90;;;;;;4958216;28;20231;-67
2023/05/07 07:03:19;;;;;;;2.10;2.00;;;18.70;99.90;;;;;;4974653;28;20431;-67
2023/05/07 07:05:44;;;;;;;3.20;3.00;;;18.80;99.90;;;;;;4975239;28;20210;-67
2023/05/07 07:08:10;;;;;;;2.93;2.73;;;18.90;99.90;;;;;;4974723;28;20207;-68
2023/05/07 07:10:36;;;;;;;1.70;1.60;;;19.00;99.90;;;;;;4974802;28;20167;-66
2023/05/07 07:13:01;;;;;;;1.40;1.30;;;19.20;99.90;;;;;;4956838;28;20186;-69
2023/05/07 07:15:27;;;;;;;1.37;1.27;;;19.40;99.90;;;;;;4956409;28;20212;-68
2023/05/07 07:17:52;;;;;;;1.80;1.70;;;19.50;99.90;;;;;;4974189;28;20172;-67
2023/05/07 07:20:18;;;;;;;1.70;1.60;;;19.60;99.90;;;;;;4956972;28;20212;-70
2023/05/07 07:22:43;;;;;;;1.50;1.30;;;19.70;99.90;;;;;;4974613;28;20172;-70
2023/05/07 07:25:10;;;;;;;1.57;1.47;;;19.90;99.90;;;;;;4973914;28;20192;-66
2023/05/07 07:27:36;;;;;;;1.67;1.57;;;20.20;99.90;;;;;;4956688;28;20563;-72
2023/05/07 07:30:02;;;;;;;1.40;1.30;;;20.50;99.90;;;;;;4956280;28;20486;-65
2023/05/07 07:32:28;;;;;;;0.93;0.93;;;20.80;99.90;;;;;;4956977;28;20515;-65
2023/05/07 07:34:53;;;;;;;1.40;1.40;;;21.20;99.90;;;;;;4956379;28;20495;-66
2023/05/07 07:37:19;;;;;;;1.00;1.00;;;21.70;99.20;;;;;;4974567;28;20176;-69
2023/05/07 07:39:45;;;;;;;1.20;1.20;;;22.20;98.80;;;;;;4974262;28;20179;-68
2023/05/07 07:42:10;;;;;;;1.70;1.60;;;22.90;97.20;;;;;;4973720;28;20172;-66
2023/05/07 07:44:36;;;;;;;1.63;1.60;;;23.50;96.30;;;;;;4964337;28;20289;-71
2023/05/07 07:47:01;;;;;;;1.57;1.47;;;24.40;94.90;;;;;;4952626;28;20238;-67
2023/05/07 07:49:27;;;;;;;1.70;1.60;;;25.40;93.60;;;;;;4975526;28;20212;-65
2023/05/07 07:51:53;;;;;;;1.27;1.27;;;26.40;92.10;;;;;;4958444;29;20181;-66
2023/05/07 07:54:18;;;;;;;1.50;1.40;;;27.30;91.30;;;;;;4965746;28;20207;-64
2023/05/07 07:56:44;;;;;;;1.83;1.73;;;28.10;89.50;;;;;;4969104;28;20184;-66
2023/05/07 07:59:10;;;;;;;3.03;2.83;;;28.90;85.20;;;;;;4966148;28;20640;-66
2023/05/07 08:01:35;;;;;;;1.77;1.67;;;29.50;83.00;;;;;;4960199;28;20181;-70
2023/05/07 08:04:03;;;;;;;1.73;1.63;;;29.50;82.10;;;;;;4976610;28;20189;-67
2023/05/07 08:06:29;;;;;;;1.67;1.57;;;29.60;81.10;;;;;;4977582;28;20184;-66
2023/05/07 08:08:55;;;;;;;2.07;1.90;;;29.40;80.60;;;;;;4977608;28;20416;-63
2023/05/07 08:11:21;;;;;;;1.97;1.63;;;29.20;80.50;;;;;;4977576;28;20398;-64
2023/05/07 08:13:47;;;;;;;1.57;1.53;;;29.00;80.10;;;;;;4976659;28;20267;-72
2023/05/07 08:16:13;;;;;;;2.27;1.37;;;28.70;80.50;;;;;;4959465;28;20476;-70
2023/05/07 08:18:38;;;;;;;1.80;1.70;;;28.80;81.70;;;;;;4977477;28;20410;-70
2023/05/07 08:21:04;;;;;;;1.77;1.67;;;28.90;80.90;;;;;;4977208;28;20168;-69
2023/05/07 08:23:30;;;;;;;1.53;1.43;;;28.90;81.40;;;;;;4976953;28;20191;-65
2023/05/07 08:25:56;;;;;;;1.70;1.60;;;28.80;80.50;;;;;;4972842;28;20203;-64
2023/05/07 08:28:22;;;;;;;1.60;1.50;;;28.80;80.60;;;;;;4966365;28;20193;-64
2023/05/07 08:30:47;;;;;;;1.90;1.53;;;28.90;80.40;;;;;;4976605;28;20239;-63
2023/05/07 08:33:13;;;;;;;1.50;1.40;;;28.90;80.40;;;;;;4972502;28;20181;-64
2023/05/07 08:35:38;;;;;;;1.90;1.80;;;28.90;81.20;;;;;;4957678;29;20562;-64
2023/05/07 08:38:04;;;;;;;1.80;1.70;;;29.20;80.20;;;;;;4958279;29;20170;-66
2023/05/07 08:40:36;;;;;;;1.80;1.70;;;29.90;80.00;;;;;;4957869;28;20178;-64
2023/05/07 08:43:02;;;;;;;2.17;2.07;;;30.50;78.70;;;;;;4954949;28;20181;-68
2023/05/07 08:45:30;;;;;;;1.60;1.50;;;30.70;76.90;;;;;;4976310;28;20435;-62
2023/05/07 08:47:59;;;;;;;2.40;2.27;;;30.60;75.80;;;;;;4971709;28;20425;-65
2023/05/07 08:50:25;;;;;;;1.97;1.87;;;30.40;75.30;;;;;;4958176;28;20434;-64
2023/05/07 08:52:51;;;;;;;1.93;1.83;;;30.30;76.30;;;;;;4958498;28;20831;-65
2023/05/07 08:55:17;;;;;;;2.00;1.90;;;30.40;75.80;;;;;;4958898;28;20271;-67
2023/05/07 08:57:43;;;;;;;1.80;1.70;;;30.80;75.00;;;;;;4976901;28;20177;-65
2023/05/07 09:00:09;;;;;;;2.10;2.00;;;31.00;74.70;;;;;;4971878;28;20461;-64
2023/05/07 09:02:36;;;;;;;2.20;2.10;;;31.30;77.00;;;;;;4972401;28;20544;-66
2023/05/07 09:05:02;;;;;;;2.20;2.10;;;31.80;75.90;;;;;;4975344;28;20518;-66
2023/05/07 09:07:27;;;;;;;1.90;1.80;;;32.20;73.90;;;;;;4962775;28;20943;-66
2023/05/07 09:09:55;;;;;;;2.13;1.93;;;32.70;72.90;;;;;;4973547;28;20235;-65
2023/05/07 09:12:21;;;;;;;1.87;1.77;;;33.40;74.30;;;;;;4975324;28;20619;-66
2023/05/07 09:14:47;;;;;;;2.17;2.07;;;34.20;71.10;;;;;;4975523;28;20489;-66
2023/05/07 09:17:13;;;;;;;1.80;1.70;;;34.90;69.10;;;;;;4976216;28;20498;-65
2023/05/07 09:19:38;;;;;;;2.33;2.23;;;35.30;67.00;;;;;;4975795;28;20208;-67
2023/05/07 09:22:07;;;;;;;2.80;2.70;;;35.60;67.30;;;;;;4974023;28;20925;-65
2023/05/07 09:24:37;;;;;;;1.93;1.83;;;36.00;64.90;;;;;;4972880;28;20275;-66
2023/05/07 09:27:04;;;;;;;2.60;2.40;;;36.20;64.00;;;;;;4967459;28;20459;-65
2023/05/07 09:29:32;;;;;;;2.00;1.90;;;36.10;65.00;;;;;;4975958;28;20416;-67
2023/05/07 09:31:58;;;;;;;2.33;2.23;;;36.30;63.90;;;;;;4971926;28;20846;-67
2023/05/07 09:34:23;;;;;;;1.87;1.77;;;36.50;64.00;;;;;;4955363;29;20464;-68
2023/05/07 09:36:49;;;;;;;2.23;2.13;;;36.30;61.50;;;;;;4957308;28;20208;-68
2023/05/07 09:39:16;;;;;;;1.90;1.80;;;36.00;60.60;;;;;;4975969;28;20184;-68
2023/05/07 09:41:49;;;;;;;2.70;2.60;;;36.10;63.20;;;;;;4975631;28;20430;-67
2023/05/07 09:44:14;;;;;;;2.00;1.90;;;36.40;59.70;;;;;;4958388;28;20468;-69
2023/05/07 09:46:44;;;;;;;2.03;1.93;;;36.00;58.90;;;;;;4975874;28;20869;-66
2023/05/07 09:49:17;;;;;;;2.20;2.10;;;35.90;59.10;;;;;;4975858;28;20168;-71
2023/05/07 09:51:48;;;;;;;1.83;1.83;;;35.90;60.00;;;;;;4975385;28;20428;-68
2023/05/07 09:54:14;;;;;;;2.00;1.90;;;36.50;59.90;;;;;;4975403;28;20976;-72
2023/05/07 09:56:43;;;;;;;2.10;2.00;;;36.80;59.70;;;;;;4975537;28;20905;-72
2023/05/07 09:59:12;;;;;;;1.80;1.80;;;37.30;58.60;;;;;;4975236;28;20419;-73
2023/05/07 10:01:40;;;;;;;2.20;2.10;;;37.50;57.00;;;;;;4959972;28;20952;-64
2023/05/07 10:04:08;;;;;;;1.90;1.80;;;37.30;56.60;;;;;;4974441;28;20448;-63
2023/05/07 10:06:34;;;;;;;2.33;2.23;;;37.00;56.20;;;;;;4974444;28;20526;-66
2023/05/07 10:09:00;;;;;;;2.07;1.90;;;36.70;56.90;;;;;;4975205;28;20898;-65
2023/05/07 10:11:26;;;;;;;2.03;1.93;;;36.50;55.70;;;;;;4974317;28;20512;-65
2023/05/07 10:13:52;;;;;;;1.80;1.70;;;36.30;56.30;;;;;;4974648;28;20635;-64
2023/05/07 10:16:19;;;;;;;1.93;1.83;;;36.30;56.30;;;;;;4975221;28;20556;-66
2023/05/07 10:18:45;;;;;;;2.03;1.93;;;35.90;57.10;;;;;;4975095;28;20431;-64
2023/05/07 10:21:21;;;;;;;2.23;2.13;;;34.60;58.00;;;;;;4957201;28;20535;-66
2023/05/07 10:23:50;;;;;;;2.17;1.97;;;33.50;58.60;;;;;;4974551;28;20921;-66
2023/05/07 10:26:20;;;;;;;2.10;2.00;;;32.40;60.90;;;;;;4974921;28;20958;-64
2023/05/07 10:28:50;;;;;;;1.63;1.53;;;32.10;62.60;;;;;;4955864;29;20420;-66
2023/05/07 10:31:53;;;;;;;2.00;1.90;;;32.20;64.50;;;;;;4958714;28;20428;-65
2023/05/07 10:34:24;;;;;;;2.20;2.10;;;32.80;62.40;;;;;;4974345;28;20470;-66
2023/05/07 10:36:51;;;;;;;2.23;2.13;;;33.10;60.80;;;;;;4973417;28;20412;-64
2023/05/07 10:39:17;;;;;;;2.10;2.00;;;32.80;60.60;;;;;;4974797;28;20469;-64
2023/05/07 10:41:43;;;;;;;2.23;2.13;;;32.80;61.10;;;;;;4974458;28;20501;-63
2023/05/07 10:44:08;;;;;;;2.03;1.93;;;32.70;60.90;;;;;;4974012;28;20287;-66
2023/05/07 10:46:35;;;;;;;2.13;2.03;;;32.60;61.10;;;;;;4974857;28;20255;-69
2023/05/07 10:49:00;;;;;;;2.00;1.90;;;32.60;60.50;;;;;;4974714;28;20168;-65
2023/05/07 10:51:27;;;;;;;2.00;1.90;;;32.60;60.00;;;;;;4974069;28;21033;-68
2023/05/07 10:54:24;;;;;;;2.00;1.90;;;32.50;61.00;;;;;;4974392;28;20179;-64
2023/05/07 10:56:50;;;;;;;1.80;1.70;;;31.90;61.60;;;;;;4931851;28;20502;-65
2023/05/07 10:59:30;;;;;;;2.20;2.03;;;31.70;62.10;;;;;;4973908;28;20893;-69
2023/05/07 11:01:58;;;;;;;2.10;2.00;;;31.70;61.70;;;;;;4956930;28;20791;-64
2023/05/07 11:04:26;;;;;;;1.90;1.80;;;31.50;62.30;;;;;;4964407;28;20794;-67
2023/05/07 11:07:08;;;;;;;1.87;1.77;;;31.00;62.60;;;;;;4967392;28;20984;-67
2023/05/07 11:09:51;;;;;;;1.80;1.70;;;30.30;63.90;;;;;;4974481;28;20439;-67
2023/05/07 11:12:37;;;;;;;1.93;1.83;;;29.70;65.10;;;;;;4956828;28;20414;-65
2023/05/07 11:15:07;;;;;;;1.90;1.80;;;29.20;66.20;;;;;;4973201;28;20422;-66
2023/05/07 11:17:34;;;;;;;1.33;1.30;;;28.40;68.00;;;;;;4973880;28;20420;-66
2023/05/07 11:20:06;;;;;;;1.60;1.50;;;27.80;68.40;;;;;;4974464;28;20805;-65
2023/05/07 11:22:32;;;;;;;2.90;1.50;;;27.40;70.40;;;;;;4959608;28;20813;-65
2023/05/07 11:25:06;;;;;;;2.20;2.00;;;27.10;71.60;;;;;;4977532;28;20481;-66
2023/05/07 11:27:32;;;;;;;1.53;1.40;;;26.60;71.90;;;;;;4977925;28;20950;-65
2023/05/07 11:29:59;;;;;;;1.70;1.43;;;26.40;72.80;;;;;;4962749;28;20776;-65
2023/05/07 11:32:28;;;;;;;3.73;2.00;;;26.30;73.40;;;;;;4978387;28;20732;-66
2023/05/07 11:34:55;;;;;;;2.87;1.70;;;26.10;75.20;;;;;;4977543;28;20451;-63
2023/05/07 11:37:23;;;;;;;1.70;1.60;;;25.90;75.90;;;;;;4977315;28;20407;-62
2023/05/07 11:39:51;;;;;;;1.60;1.50;;;25.60;76.30;;;;;;4977688;28;20483;-65
2023/05/07 11:42:31;;;;;;;1.30;1.30;;;25.40;76.80;;;;;;4977611;28;20958;-60
2023/05/07 11:44:58;;;;;;;2.00;1.90;;;25.30;78.40;;;;;;4977386;28;20482;-63
2023/05/07 11:47:24;;;;;;;1.53;1.50;;;25.20;78.80;;;;;;4978155;28;20387;-62
2023/05/07 11:49:51;;;;;;;1.47;1.37;;;25.20;78.60;;;;;;4977272;28;20517;-62
2023/05/07 11:52:18;;;;;;;1.50;1.40;;;25.20;76.10;;;;;;4973709;28;20811;-64
2023/05/07 11:54:51;;;;;;;3.00;1.70;;;25.30;76.70;;;;;;4977014;28;20426;-63
2023/05/07 11:57:16;;;;;;;1.30;1.30;;;25.40;76.00;;;;;;4978075;28;20429;-64
2023/05/07 11:59:44;;;;;;;1.20;1.20;;;25.50;76.40;;;;;;4977679;28;20729;-62
2023/05/07 12:02:10;;;;;;;1.20;1.10;;;25.60;75.90;;;;;;4975691;28;20642;-62
2023/05/07 12:04:38;;;;;;;1.03;1.03;;;25.60;75.50;;;;;;4975101;28;20465;-64
2023/05/07 12:07:03;;;;;;;0.90;0.90;;;25.60;75.40;;;;;;4975583;28;20496;-63
2023/05/07 12:09:29;;;;;;;1.60;1.50;;;25.60;76.10;;;;;;4975691;28;20477;-64
2023/05/07 12:11:56;;;;;;;1.50;1.40;;;25.50;78.40;;;;;;4975894;28;20180;-64
2023/05/07 12:14:21;;;;;;;1.27;1.17;;;25.30;78.90;;;;;;4975643;28;20410;-64
2023/05/07 12:16:47;;;;;;;1.27;1.17;;;25.30;78.00;;;;;;4976915;28;20515;-61
2023/05/07 12:19:14;;;;;;;2.10;1.40;;;25.20;79.00;;;;;;4977226;28;20180;-63
2023/05/07 12:21:40;;;;;;;1.57;1.47;;;25.00;79.00;;;;;;4975380;28;20420;-62
2023/05/07 12:24:07;;;;;;;1.50;1.40;;;24.90;78.80;;;;;;4976474;28;20425;-63
2023/05/07 12:26:40;;;;;;;1.10;1.10;;;24.70;78.20;;;;;;4977576;28;20418;-63
2023/05/07 12:29:06;;;;;;;1.50;1.40;;;24.50;79.60;;;;;;4977321;28;20398;-65
2023/05/07 12:31:32;;;;;;;1.37;1.27;;;24.30;79.60;;;;;;4976831;28;20805;-62
2023/05/07 12:33:58;;;;;;;1.30;1.17;;;24.10;79.20;;;;;;4975697;28;20411;-62
2023/05/07 12:36:24;;;;;;;1.30;1.30;;;23.90;80.20;;;;;;4976661;28;20188;-64
2023/05/07 12:38:50;;;;;;;3.80;1.80;;;23.70;80.60;;;;;;4976834;28;20184;-65
2023/05/07 12:41:16;;;;;;;1.50;1.40;;;23.60;81.20;;;;;;4976570;28;20841;-63
2023/05/07 12:43:45;;;;;;;1.77;1.67;;;23.50;81.60;;;;;;4976429;28;20247;-63
2023/05/07 12:46:13;;;;;;;1.43;1.33;;;23.50;82.10;;;;;;4976869;28;20253;-63
2023/05/07 12:48:44;;;;;;;1.50;1.40;;;23.40;83.50;;;;;;4976938;28;20911;-60
2023/05/07 12:51:12;;;;;;;1.50;1.40;;;23.20;86.20;;;;;;4976350;28;20760;-65
2023/05/07 12:53:42;;;;;;;0.90;0.90;;;23.00;88.10;;;;;;4976008;28;20401;-62
2023/05/07 12:56:08;;;;;;;1.93;1.60;;;22.70;89.80;;;;;;4976859;28;20418;-63
2023/05/07 12:58:35;;;;;;;1.53;1.43;;;22.30;89.80;;;;;;4976631;28;20573;-63
2023/05/07 13:01:06;;;;;;;1.20;1.20;;;22.00;90.20;;;;;;4975385;28;20428;-65
2023/05/07 13:03:34;;;;;;;1.17;1.17;;;21.80;90.90;;;;;;4974545;28;20398;-63
2023/05/07 13:06:02;;;;;;;2.53;1.10;;;21.50;91.80;;;;;;4975666;28;20473;-64
2023/05/07 13:08:40;;;;;;;1.80;1.70;;;21.30;92.80;;;;;;4976200;28;20480;-61
2023/05/07 13:11:07;;;;;;;2.10;2.00;;;21.10;93.80;;;;;;4976306;28;20428;-63
2023/05/07 13:13:34;;;;;;;1.93;1.60;;;20.90;94.90;;;;;;4976224;28;20390;-62
2023/05/07 13:16:01;;;;;;;2.43;2.23;;;20.70;95.10;;;;;;4976198;28;20441;-63
2023/05/07 13:18:28;;;;;;;2.53;2.33;;;20.50;95.70;;;;;;4975874;28;20398;-62
2023/05/07 13:20:54;;;;;;;1.13;1.07;;;20.30;96.80;;;;;;4975909;28;20413;-63
2023/05/07 13:23:20;;;;;;;1.47;1.37;;;20.20;96.70;;;;;;4975583;28;20508;-62
2023/05/07 13:25:46;;;;;;;1.27;1.17;;;20.00;97.90;;;;;;4975349;28;20574;-62
2023/05/07 13:28:12;;;;;;;1.30;1.30;;;19.70;98.20;;;;;;4976102;28;20430;-62
2023/05/07 13:30:37;;;;;;;1.23;1.20;;;19.50;99.40;;;;;;4976031;28;20180;-64
2023/05/07 13:33:03;;;;;;;0.93;0.93;;;19.30;99.90;;;;;;4975620;28;20825;-64
2023/05/07 13:35:29;;;;;;;0.83;0.83;;;19.00;99.40;;;;;;4975898;28;20689;-62
2023/05/07 13:37:55;;;;;;;0.87;0.87;;;18.50;99.90;;;;;;4975840;28;20184;-64
2023/05/07 13:40:21;;;;;;;1.60;1.00;;;18.20;99.90;;;;;;4975702;28;20943;-60
2023/05/07 13:42:47;;;;;;;0.77;0.77;;;17.70;99.90;;;;;;4975762;28;20174;-64
2023/05/07 13:45:13;;;;;;;0.93;0.80;;;17.40;99.90;;;;;;4975322;28;20592;-62
2023/05/07 13:47:40;;;;;;;1.27;0.87;;;17.20;99.90;;;;;;4975646;28;20449;-65
2023/05/07 13:50:08;;;;;;;1.33;1.07;;;17.00;99.90;;;;;;4975349;28;20424;-62
2023/05/07 13:52:33;;;;;;;0.63;0.63;;;16.80;99.90;;;;;;4974322;28;20439;-62
2023/05/07 13:54:59;;;;;;;0.70;0.70;;;16.80;99.90;;;;;;4974390;28;20540;-63
2023/05/07 13:57:24;;;;;;;0.90;0.90;;;16.70;99.90;;;;;;4975635;28;20249;-62
2023/05/07 13:59:50;;;;;;;0.90;0.90;;;16.70;99.90;;;;;;4975863;28;20240;-61
2023/05/07 14:02:16;;;;;;;1.20;1.10;;;16.70;99.90;;;;;;4975333;28;20173;-63
2023/05/07 14:04:41;;;;;;;0.63;0.60;;;16.70;99.90;;;;;;4975021;28;20193;-64
2023/05/07 14:07:07;;;;;;;0.60;0.60;;;16.70;99.90;;;;;;4975096;28;20276;-61
2023/05/07 14:09:32;;;;;;;3.17;1.00;;;16.70;99.90;;;;;;4975310;28;20231;-64
2023/05/07 14:11:59;;;;;;;0.53;0.53;;;16.60;99.90;;;;;;4974954;28;20186;-61
2023/05/07 14:14:24;;;;;;;3.60;1.87;;;16.60;99.90;;;;;;4974511;28;20211;-64
2023/05/07 14:16:50;;;;;;;1.00;1.00;;;16.50;99.90;;;;;;4975032;28;20421;-61
2023/05/07 14:19:16;;;;;;;1.13;0.80;;;16.40;99.90;;;;;;4975253;28;20174;-64
2023/05/07 14:21:41;;;;;;;0.70;0.70;;;16.40;99.90;;;;;;4975044;28;20192;-62
2023/05/07 14:24:11;;;;;;;1.03;0.93;;;16.40;99.90;;;;;;4973573;28;20190;-61
2023/05/07 14:26:36;;;;;;;1.43;1.43;;;16.40;99.90;;;;;;4974211;28;20184;-61
2023/05/07 14:29:03;;;;;;;5.30;1.30;;;16.40;99.90;;;;;;4974041;28;20405;-60
2023/05/07 14:31:29;;;;;;;0.93;0.93;;;16.30;99.90;;;;;;4972649;28;20184;-62
2023/05/07 14:33:54;;;;;;;1.10;1.10;;;16.30;99.90;;;;;;4972263;28;20416;-63
2023/05/07 14:36:21;;;;;;;1.20;1.20;;;16.30;99.90;;;;;;4972291;28;20816;-64
2023/05/07 14:38:47;;;;;;;1.20;1.20;;;16.30;99.90;;;;;;4973246;28;20180;-62
2023/05/07 14:41:13;;;;;;;2.03;1.87;;;16.20;99.90;;;;;;4973189;28;20415;-63
2023/05/07 14:43:38;;;;;;;1.30;1.30;;;16.20;99.90;;;;;;4973145;28;20434;-60
2023/05/07 14:46:04;;;;;;;1.20;1.20;;;16.20;99.90;;;;;;4974574;28;20507;-63
2023/05/07 14:48:29;;;;;;;1.33;1.20;;;16.30;99.90;;;;;;4974706;28;20183;-63
2023/05/07 14:50:56;;;;;;;1.00;1.00;;;16.30;99.90;;;;;;4974272;28;20642;-64
2023/05/07 14:53:22;;;;;;;1.33;1.27;;;16.20;99.90;;;;;;4974196;28;20180;-62
2023/05/07 14:55:48;;;;;;;1.37;1.27;;;16.20;99.90;;;;;;4974700;28;20461;-64
2023/05/07 14:58:14;;;;;;;1.47;1.37;;;16.20;99.90;;;;;;4973887;28;20425;-62
2023/05/07 15:00:39;;;;;;;1.07;1.07;;;16.10;99.90;;;;;;4957319;28;20474;-64
2023/05/07 15:03:07;;;;;;;2.00;1.90;;;16.10;99.90;;;;;;4973513;28;20447;-63
2023/05/07 15:05:34;;;;;;;3.90;1.27;;;16.10;99.90;;;;;;4974144;28;20204;-63
2023/05/07 15:08:00;;;;;;;2.10;1.90;;;16.10;99.90;;;;;;4974515;28;20896;-60
2023/05/07 15:10:26;;;;;;;0.93;0.93;;;16.10;99.90;;;;;;4974114;28;20549;-61
2023/05/07 15:12:51;;;;;;;1.77;1.67;;;16.00;99.90;;;;;;4974321;28;20786;-63
2023/05/07 15:15:17;;;;;;;1.70;1.60;;;16.10;99.90;;;;;;4973593;28;20468;-62
2023/05/07 15:17:43;;;;;;;1.63;1.47;;;16.10;99.90;;;;;;4974273;28;20228;-64
2023/05/07 15:20:08;;;;;;;1.20;1.20;;;16.10;99.90;;;;;;4974561;28;20170;-62
2023/05/07 15:22:36;;;;;;;1.13;1.10;;;16.10;99.90;;;;;;4974003;28;20180;-64
2023/05/07 15:25:03;;;;;;;1.47;1.30;;;16.00;99.90;;;;;;4974176;28;20490;-61
2023/05/07 15:27:30;;;;;;;1.00;1.00;;;16.00;99.90;;;;;;4973962;28;20543;-62
2023/05/07 15:29:56;;;;;;;1.10;1.10;;;16.10;99.90;;;;;;4956848;28;20926;-61
2023/05/07 15:32:22;;;;;;;0.80;0.80;;;16.10;99.90;;;;;;4973884;28;20432;-62
2023/05/07 15:34:48;;;;;;;1.30;1.20;;;16.10;99.90;;;;;;4973833;28;20455;-62
2023/05/07 15:37:13;;;;;;;1.30;1.20;;;16.00;99.90;;;;;;4974004;28;20204;-64
2023/05/07 15:39:39;;;;;;;1.40;1.30;;;16.00;99.90;;;;;;4974270;28;20176;-63
2023/05/07 15:42:05;;;;;;;1.00;1.00;;;16.10;99.90;;;;;;4973626;28;20176;-62
2023/05/07 15:44:31;;;;;;;2.10;1.97;;;16.10;99.90;;;;;;4973363;28;20516;-64
2023/05/07 15:46:59;;;;;;;1.70;1.60;;;16.20;99.90;;;;;;4973992;28;20259;-62
2023/05/07 15:49:24;;;;;;;3.30;2.10;;;16.20;99.90;;;;;;4974141;28;20423;-64
2023/05/07 15:51:50;;;;;;;1.67;1.47;;;16.20;99.90;;;;;;4973958;28;20494;-62
2023/05/07 15:54:19;;;;;;;2.80;1.83;;;16.30;99.90;;;;;;4956277;28;20206;-65
2023/05/07 15:56:45;;;;;;;1.37;1.30;;;16.30;99.90;;;;;;4974066;28;20425;-63
2023/05/07 15:59:11;;;;;;;1.20;1.20;;;16.30;99.90;;;;;;4973856;28;20430;-65
2023/05/07 16:01:37;;;;;;;1.40;1.30;;;16.40;99.90;;;;;;4973964;28;21149;-62
2023/05/07 16:04:03;;;;;;;1.80;1.37;;;16.40;99.90;;;;;;4973874;28;20404;-64
2023/05/07 16:06:30;;;;;;;1.50;1.40;;;16.50;99.90;;;;;;4973601;28;20441;-64
2023/05/07 16:08:55;;;;;;;2.87;2.60;;;16.50;99.90;;;;;;4975135;28;20457;-64
2023/05/07 16:11:21;;;;;;;2.13;1.93;;;16.60;99.90;;;;;;4977414;28;20457;-62
2023/05/07 16:13:47;;;;;;;1.97;1.87;;;16.60;99.90;;;;;;4976125;28;20179;-61
2023/05/07 16:16:12;;;;;;;1.90;1.80;;;16.60;99.90;;;;;;4977026;28;20192;-62
2023/05/07 16:18:38;;;;;;;1.80;1.70;;;16.50;99.90;;;;;;4959819;28;20188;-64
2023/05/07 16:21:04;;;;;;;2.13;2.03;;;16.50;99.90;;;;;;4977538;28;20183;-65
2023/05/07 16:23:30;;;;;;;1.33;1.33;;;16.50;99.90;;;;;;4976973;28;20178;-64
2023/05/07 16:25:55;;;;;;;1.80;1.70;;;16.50;99.90;;;;;;4977201;28;20445;-65
2023/05/07 16:28:22;;;;;;;1.57;1.47;;;16.50;99.90;;;;;;4977096;28;21014;-59
2023/05/07 16:30:48;;;;;;;3.30;2.53;;;16.60;99.90;;;;;;4977285;28;20184;-63
2023/05/07 16:33:13;;;;;;;1.40;1.33;;;16.60;99.90;;;;;;4977061;28;20426;-62
2023/05/07 16:35:39;;;;;;;1.57;1.40;;;16.60;99.90;;;;;;4976893;28;20276;-61
2023/05/07 16:38:08;;;;;;;1.40;1.33;;;16.60;99.90;;;;;;4976956;28;20184;-62
2023/05/07 16:40:37;;;;;;;2.20;1.80;;;16.50;99.90;;;;;;4976440;28;20588;-62
2023/05/07 16:43:02;;;;;;;1.63;1.50;;;16.50;99.90;;;;;;4976474;28;20424;-62
2023/05/07 16:45:28;;;;;;;1.90;1.80;;;16.40;99.90;;;;;;4976802;28;20441;-63
2023/05/07 16:47:55;;;;;;;1.50;1.40;;;16.40;99.90;;;;;;4976814;28;20213;-65
2023/05/07 16:50:21;;;;;;;1.80;1.67;;;16.40;99.90;;;;;;4976883;28;20188;-70